Upper Sandusky, Ohio
Current Conditions -  °F | °C
As of 11:53 AM on Friday 24 Oct 2014 (Local Time) from KMNN Reporting Station
Haze Haze  
Wind Chill: 56°   Ceiling: Unl
Heat Index: 56°   Visibility: 5mi
Dew Point: 40°   Wind: 0mph
Humidity: 55%   Direction: NA
Pressure: 30.1"   Gusts: NA
Location:  40.83°N, 83.29°W
Report Text: KMNN 241553Z AUTO 00000KT 5SM HZ CLR 13/04 A3010 RMK AO2 SLP199 T01330044 TSNO
Loading
Personal Weather Stations






























Interactive Weather Map
Tropical Storm Tracking
New forecast layout! Learn more

10-Day Weather Forecast

Advertisements
Track Severe Weather on mobile